createdAt,value
2023-01-03T00:00:39.203Z,0.10
2023-01-03T00:03:27.571Z,0.18
2023-01-03T00:05:55.477Z,0.13
2023-01-03T00:08:23.316Z,0.16
2023-01-03T00:10:51.123Z,0.16
2023-01-03T00:13:18.983Z,0.21
2023-01-03T00:15:46.729Z,0.34
2023-01-03T00:18:14.542Z,0.29
2023-01-03T00:20:43.132Z,0.09
2023-01-03T00:23:10.887Z,0.12
2023-01-03T00:25:38.832Z,0.10
2023-01-03T00:28:06.847Z,0.13
2023-01-03T00:30:35.658Z,0.20
2023-01-03T00:33:04.264Z,0.12
2023-01-03T00:35:32.409Z,0.02
2023-01-03T00:38:00.225Z,0.07
2023-01-03T00:40:28.117Z,0.06
2023-01-03T00:43:14.712Z,0.12
2023-01-03T00:45:42.782Z,0.10
2023-01-03T00:48:10.698Z,0.13
2023-01-03T00:50:38.511Z,0.02
2023-01-03T00:53:06.316Z,0.05
2023-01-03T00:55:34.912Z,0.15
2023-01-03T00:58:02.697Z,0.13
2023-01-03T01:00:30.800Z,0.07
2023-01-03T01:02:58.605Z,0.05
2023-01-03T01:05:28.464Z,-0.00
2023-01-03T01:07:57.048Z,0.01
2023-01-03T01:10:25.367Z,0.03
2023-01-03T01:12:57.237Z,0.03
2023-01-03T01:15:25.327Z,0.07
2023-01-03T01:17:53.105Z,0.07
2023-01-03T01:20:20.959Z,0.02
2023-01-03T01:22:48.736Z,0.11
2023-01-03T01:25:16.546Z,0.07
2023-01-03T01:27:44.359Z,0.09
2023-01-03T01:30:12.218Z,0.15
2023-01-03T01:32:40.102Z,0.22
2023-01-03T01:35:08.207Z,0.24
2023-01-03T01:37:36.029Z,0.26
2023-01-03T01:40:04.186Z,0.16
2023-01-03T01:42:50.604Z,0.30
2023-01-03T01:45:18.556Z,0.22
2023-01-03T01:47:55.186Z,0.13
2023-01-03T01:50:40.818Z,0.21
2023-01-03T01:53:14.715Z,0.18
2023-01-03T01:55:44.858Z,0.18
2023-01-03T01:58:13.219Z,0.21
2023-01-03T02:00:42.138Z,0.20
2023-01-03T02:03:10.635Z,0.21
2023-01-03T02:05:41.656Z,0.23
2023-01-03T02:08:09.725Z,0.10
2023-01-03T02:10:55.882Z,0.05
2023-01-03T02:13:35.895Z,0.12
2023-01-03T02:16:19.300Z,0.03
2023-01-03T02:18:55.460Z,0.05
2023-01-03T02:21:32.208Z,0.07
2023-01-03T02:24:12.363Z,0.05
2023-01-03T02:26:55.532Z,0.09
2023-01-03T02:29:23.406Z,-0.00
2023-01-03T02:32:01.380Z,-0.16
2023-01-03T02:34:32.848Z,-0.17
2023-01-03T02:37:05.894Z,-0.17
2023-01-03T02:39:41.057Z,-0.33
2023-01-03T02:42:41.875Z,-0.29
2023-01-03T02:45:14.469Z,-0.39
2023-01-03T02:47:48.444Z,-0.40
2023-01-03T02:50:16.491Z,-0.42
2023-01-03T02:52:46.337Z,-0.35
2023-01-03T02:55:14.248Z,-0.32
2023-01-03T02:57:51.017Z,-0.45
2023-01-03T03:00:21.575Z,-0.41
2023-01-03T03:02:52.205Z,-0.36
2023-01-03T03:05:23.219Z,-0.30
2023-01-03T03:07:51.303Z,-0.31
2023-01-03T03:10:38.312Z,-0.29
2023-01-03T03:13:15.579Z,-0.22
2023-01-03T03:15:46.144Z,-0.21
2023-01-03T03:18:33.642Z,-0.21
2023-01-03T03:21:21.335Z,-0.28
2023-01-03T03:24:08.896Z,-0.33
2023-01-03T03:26:43.453Z,-0.38
2023-01-03T03:29:15.399Z,-0.38
2023-01-03T03:31:45.245Z,-0.44
2023-01-03T03:34:17.831Z,-0.49
2023-01-03T03:36:45.653Z,-0.44
2023-01-03T03:39:32.989Z,-0.52
2023-01-03T03:42:39.976Z,-0.44
2023-01-03T03:45:24.246Z,-0.40
2023-01-03T03:48:05.957Z,-0.38
2023-01-03T03:50:49.938Z,-0.42
2023-01-03T03:53:20.223Z,-0.43
2023-01-03T03:55:51.941Z,-0.50
2023-01-03T03:58:49.456Z,-0.48
2023-01-03T04:01:20.292Z,-0.39
2023-01-03T04:03:50.155Z,-0.41
2023-01-03T04:06:24.758Z,-0.40
2023-01-03T04:08:52.566Z,-0.36
2023-01-03T04:11:20.444Z,-0.34
2023-01-03T04:13:48.234Z,-0.39
2023-01-03T04:16:16.252Z,-0.39
2023-01-03T04:18:44.189Z,-0.29
2023-01-03T04:21:18.720Z,-0.29
2023-01-03T04:23:49.264Z,-0.28
2023-01-03T04:26:17.476Z,-0.28
2023-01-03T04:28:45.463Z,-0.35
2023-01-03T04:31:13.422Z,-0.36
2023-01-03T04:33:41.375Z,-0.43
2023-01-03T04:36:09.541Z,-0.40
2023-01-03T04:38:37.530Z,-0.40
2023-01-03T04:41:06.103Z,-0.41
2023-01-03T04:43:52.921Z,-0.33
2023-01-03T04:46:21.481Z,-0.36
2023-01-03T04:48:49.545Z,-0.41
2023-01-03T04:51:17.371Z,-0.33
2023-01-03T04:53:45.251Z,-0.39
2023-01-03T04:56:13.134Z,-0.38
2023-01-03T04:58:41.108Z,-0.37
2023-01-03T05:01:09.135Z,-0.34
2023-01-03T05:03:38.221Z,-0.48
2023-01-03T05:06:08.103Z,-0.42
2023-01-03T05:08:36.098Z,-0.45
2023-01-03T05:11:04.027Z,-0.44
2023-01-03T05:13:32.527Z,-0.51
2023-01-03T05:16:04.997Z,-0.59
2023-01-03T05:18:33.069Z,-0.55
2023-01-03T05:21:35.901Z,-0.58
2023-01-03T05:24:22.467Z,-0.64
2023-01-03T05:26:50.558Z,-0.62
2023-01-03T05:29:19.809Z,-0.61
2023-01-03T05:31:48.279Z,-0.47
2023-01-03T05:34:16.154Z,-0.55
2023-01-03T05:36:44.029Z,-0.61
2023-01-03T05:39:11.902Z,-0.48
2023-01-03T05:41:58.910Z,-0.63
2023-01-03T05:44:27.487Z,-0.54
2023-01-03T05:46:55.395Z,-0.63
2023-01-03T05:49:23.204Z,-0.73
2023-01-03T05:51:51.142Z,-0.71
2023-01-03T05:54:19.995Z,-0.69
2023-01-03T05:56:48.603Z,-0.63
2023-01-03T05:59:16.384Z,-0.60
2023-01-03T06:01:44.273Z,-0.58
2023-01-03T06:04:12.262Z,-0.55
2023-01-03T06:06:40.178Z,-0.57
2023-01-03T06:09:08.061Z,-0.51
2023-01-03T06:11:37.302Z,-0.53
2023-01-03T06:14:05.222Z,-0.50
2023-01-03T06:16:52.443Z,-0.49
2023-01-03T06:19:20.420Z,-0.56
2023-01-03T06:21:50.624Z,-0.59
2023-01-03T06:24:18.765Z,-0.56
2023-01-03T06:26:46.673Z,-0.50
2023-01-03T06:29:14.803Z,-0.48
2023-01-03T06:31:42.770Z,-0.52
2023-01-03T06:34:10.697Z,-0.57
2023-01-03T06:36:39.008Z,-0.60
2023-01-03T06:39:08.768Z,-0.68
2023-01-03T06:41:36.659Z,-0.71
2023-01-03T06:44:04.549Z,-0.70
2023-01-03T06:46:50.941Z,-0.68
2023-01-03T06:49:37.654Z,-0.65
2023-01-03T06:52:31.232Z,-0.63
2023-01-03T06:54:59.155Z,-0.64
2023-01-03T06:57:27.566Z,-0.60
2023-01-03T06:59:55.733Z,-0.58
2023-01-03T07:02:23.811Z,-0.59
2023-01-03T07:04:51.856Z,-0.57
2023-01-03T07:07:19.884Z,-0.62
2023-01-03T07:09:47.721Z,-0.70
2023-01-03T07:12:36.838Z,-0.71
2023-01-03T07:15:05.375Z,-0.76
2023-01-03T07:17:33.432Z,-0.76
2023-01-03T07:20:01.646Z,-0.81
2023-01-03T07:22:29.639Z,-0.81
2023-01-03T07:24:57.652Z,-0.74
2023-01-03T07:27:25.853Z,-0.80
2023-01-03T07:29:53.818Z,-0.77
2023-01-03T07:32:21.759Z,-0.68
2023-01-03T07:34:49.537Z,-0.66
2023-01-03T07:37:19.042Z,-0.64
2023-01-03T07:39:46.951Z,-0.64
2023-01-03T07:42:33.539Z,-0.60
2023-01-03T07:45:01.435Z,-0.56
2023-01-03T07:47:29.364Z,-0.46
2023-01-03T07:49:57.181Z,-0.47
2023-01-03T07:52:25.101Z,-0.40
2023-01-03T07:54:52.897Z,-0.37
2023-01-03T07:57:20.789Z,-0.37
2023-01-03T07:59:48.825Z,-0.39
2023-01-03T08:02:16.980Z,-0.28
2023-01-03T08:04:45.006Z,-0.29
2023-01-03T08:07:12.865Z,-0.38
2023-01-03T08:09:59.480Z,-0.35
2023-01-03T08:12:46.114Z,-0.31
2023-01-03T08:15:13.907Z,-0.35
2023-01-03T08:17:43.090Z,-0.33
2023-01-03T08:20:11.060Z,-0.32
2023-01-03T08:22:39.075Z,-0.25
2023-01-03T08:25:07.303Z,-0.18
2023-01-03T08:27:35.160Z,-0.12
2023-01-03T08:30:03.261Z,-0.01
2023-01-03T08:32:32.160Z,0.01
2023-01-03T08:35:01.089Z,-0.04
2023-01-03T08:37:29.993Z,0.05
2023-01-03T08:40:01.368Z,0.19
2023-01-03T08:42:29.899Z,0.19
2023-01-03T08:45:03.056Z,0.21
2023-01-03T08:47:31.440Z,0.32
2023-01-03T08:49:59.896Z,0.44
2023-01-03T08:52:33.095Z,0.51
2023-01-03T08:55:03.235Z,0.52
2023-01-03T08:57:31.260Z,0.42
2023-01-03T08:59:59.385Z,0.57
2023-01-03T09:02:27.607Z,0.62
2023-01-03T09:04:56.552Z,0.60
2023-01-03T09:07:24.501Z,0.59
2023-01-03T09:09:52.368Z,0.65
2023-01-03T09:12:20.303Z,0.68
2023-01-03T09:14:48.242Z,0.85
2023-01-03T09:17:16.118Z,1.03
2023-01-03T09:19:44.402Z,1.11
2023-01-03T09:22:12.248Z,1.21
2023-01-03T09:24:40.166Z,1.27
2023-01-03T09:27:08.008Z,1.29
2023-01-03T09:29:35.932Z,1.42
2023-01-03T09:32:04.098Z,1.58
2023-01-03T09:34:32.076Z,1.59
2023-01-03T09:36:59.943Z,1.67
2023-01-03T09:39:27.891Z,1.88
2023-01-03T09:42:16.804Z,1.94
2023-01-03T09:44:45.175Z,2.13
2023-01-03T09:47:18.119Z,2.15
2023-01-03T09:50:18.456Z,1.98
2023-01-03T09:52:52.975Z,1.87
2023-01-03T09:55:39.811Z,2.18
2023-01-03T09:58:32.066Z,2.39
2023-01-03T10:01:24.374Z,2.45
2023-01-03T10:04:12.389Z,2.62
2023-01-03T10:06:54.417Z,2.76
2023-01-03T10:09:25.402Z,2.77
2023-01-03T10:11:53.402Z,2.97
2023-01-03T10:14:50.426Z,3.12
2023-01-03T10:17:37.149Z,3.18
2023-01-03T10:20:11.060Z,3.36
2023-01-03T10:22:39.404Z,3.49
2023-01-03T10:25:07.213Z,3.64
2023-01-03T10:27:36.611Z,3.67
2023-01-03T10:30:06.233Z,3.59
2023-01-03T10:32:52.990Z,3.68
2023-01-03T10:35:20.912Z,3.49
2023-01-03T10:37:51.474Z,3.74
2023-01-03T10:40:19.919Z,3.64
2023-01-03T10:42:52.374Z,3.64
2023-01-03T10:45:24.585Z,3.68
2023-01-03T10:48:00.204Z,3.69
2023-01-03T10:50:28.964Z,3.70
2023-01-03T10:53:04.077Z,3.64
2023-01-03T10:55:34.194Z,3.79
2023-01-03T10:58:04.089Z,3.81
2023-01-03T11:00:34.430Z,3.72
2023-01-03T11:03:13.237Z,3.82
2023-01-03T11:05:42.605Z,3.87
2023-01-03T11:08:22.414Z,3.90
2023-01-03T11:10:52.606Z,4.05
2023-01-03T11:13:40.809Z,4.06
2023-01-03T11:16:17.391Z,4.04
2023-01-03T11:18:59.396Z,4.06
2023-01-03T11:21:37.107Z,3.91
2023-01-03T11:24:22.943Z,4.12
2023-01-03T11:26:50.868Z,4.30
2023-01-03T11:29:59.377Z,4.55
2023-01-03T11:32:46.051Z,4.67
2023-01-03T11:35:26.296Z,4.78
2023-01-03T11:38:06.498Z,4.84
2023-01-03T11:40:53.297Z,4.99
2023-01-03T11:43:22.555Z,5.04
2023-01-03T11:46:06.472Z,5.22
2023-01-03T11:48:58.312Z,5.21
2023-01-03T11:51:34.968Z,5.16
2023-01-03T11:54:23.641Z,5.20
2023-01-03T11:56:52.992Z,5.22
2023-01-03T11:59:36.850Z,5.12
2023-01-03T12:02:24.016Z,5.22
2023-01-03T12:05:01.279Z,5.11
2023-01-03T12:10:25.512Z,5.38
2023-01-03T12:12:56.589Z,5.42
2023-01-03T12:15:27.697Z,5.51
2023-01-03T12:18:15.443Z,5.51
2023-01-03T12:20:52.080Z,5.49
2023-01-03T12:23:22.976Z,5.57
2023-01-03T12:25:54.654Z,5.60
2023-01-03T12:28:36.033Z,5.65
2023-01-03T12:31:27.911Z,5.77
2023-01-03T12:34:07.860Z,5.77
2023-01-03T12:36:41.896Z,5.56
2023-01-03T12:39:32.917Z,5.49
2023-01-03T12:42:09.948Z,5.41
2023-01-03T12:44:40.478Z,5.36
2023-01-03T12:47:14.430Z,5.24
2023-01-03T12:49:49.594Z,5.27
2023-01-03T12:52:19.693Z,5.22
2023-01-03T12:54:47.868Z,5.16
2023-01-03T12:57:28.023Z,5.27
2023-01-03T12:59:59.762Z,5.30
2023-01-03T13:02:38.092Z,5.30
2023-01-03T13:05:18.928Z,5.18
2023-01-03T13:07:50.553Z,5.27
2023-01-03T13:10:20.882Z,5.29
2023-01-03T13:12:52.952Z,5.12
2023-01-03T13:15:33.319Z,5.12
2023-01-03T13:18:19.697Z,5.05
2023-01-03T13:20:50.230Z,5.03
2023-01-03T13:23:33.055Z,5.00
2023-01-03T13:26:07.685Z,4.96
2023-01-03T13:28:37.247Z,4.92
2023-01-03T13:31:14.890Z,4.94
2023-01-03T13:33:54.834Z,4.81
2023-01-03T13:36:24.058Z,4.90
2023-01-03T13:38:56.174Z,4.87
2023-01-03T13:41:39.093Z,4.86
2023-01-03T13:44:27.556Z,4.82
2023-01-03T13:46:56.157Z,4.79
2023-01-03T13:49:26.587Z,4.75
2023-01-03T13:51:57.589Z,4.79
2023-01-03T13:54:34.058Z,4.73
2023-01-03T13:57:03.998Z,4.68
2023-01-03T13:59:35.169Z,4.60
2023-01-03T14:02:06.299Z,4.64
2023-01-03T14:04:53.357Z,4.56
2023-01-03T14:07:21.297Z,4.49
2023-01-03T14:09:49.377Z,4.44
2023-01-03T14:12:24.650Z,4.32
2023-01-03T14:14:56.709Z,4.36
2023-01-03T14:17:31.803Z,4.31
2023-01-03T14:20:05.018Z,4.30
2023-01-03T14:22:39.735Z,4.32
2023-01-03T14:25:08.941Z,4.31
2023-01-03T14:27:43.700Z,4.31
2023-01-03T14:30:24.393Z,4.30
2023-01-03T14:32:53.508Z,4.32
2023-01-03T14:35:32.127Z,4.35
2023-01-03T14:38:08.092Z,4.35
2023-01-03T14:40:46.732Z,4.31
2023-01-03T14:43:21.174Z,4.36
2023-01-03T14:45:53.702Z,4.41
2023-01-03T14:48:23.445Z,4.45
2023-01-03T14:50:52.231Z,4.49
2023-01-03T14:53:20.615Z,4.53
2023-01-03T14:55:54.392Z,4.48
2023-01-03T14:58:45.280Z,4.46
2023-01-03T15:01:14.531Z,4.51
2023-01-03T15:03:47.778Z,4.56
2023-01-03T15:06:24.143Z,4.66
2023-01-03T15:08:59.588Z,4.68
2023-01-03T15:11:28.179Z,4.79
2023-01-03T15:14:05.326Z,4.78
2023-01-03T15:16:38.140Z,4.66
2023-01-03T15:19:06.369Z,4.70
2023-01-03T15:21:35.521Z,4.74
2023-01-03T15:24:03.979Z,4.85
2023-01-03T15:26:43.076Z,4.81
2023-01-03T15:29:15.947Z,4.73
2023-01-03T15:31:49.622Z,4.80
2023-01-03T15:34:27.201Z,4.92
2023-01-03T15:37:15.372Z,4.92
2023-01-03T15:39:45.905Z,4.95
2023-01-03T15:42:44.432Z,4.96
2023-01-03T15:45:27.370Z,4.94
2023-01-03T15:47:57.983Z,4.94
2023-01-03T15:50:33.884Z,5.02
2023-01-03T15:53:01.835Z,5.05
2023-01-03T15:55:29.701Z,5.07
2023-01-03T15:57:59.814Z,5.08
2023-01-03T16:00:27.933Z,5.05
2023-01-03T16:02:56.248Z,4.99
2023-01-03T16:05:25.977Z,5.01
2023-01-03T16:07:54.344Z,4.93
2023-01-03T16:10:22.852Z,5.01
2023-01-03T16:12:50.797Z,5.03
2023-01-03T16:15:21.200Z,5.07
2023-01-03T16:17:52.000Z,5.12
2023-01-03T16:20:20.675Z,5.13
2023-01-03T16:22:59.591Z,5.12
2023-01-03T16:25:28.242Z,5.19
2023-01-03T16:27:56.292Z,5.24
2023-01-03T16:30:26.130Z,5.16
2023-01-03T16:32:54.153Z,5.18
2023-01-03T16:35:22.685Z,5.15
2023-01-03T16:37:50.535Z,5.17
2023-01-03T16:40:19.849Z,5.16
2023-01-03T16:42:48.466Z,5.16
2023-01-03T16:45:17.607Z,5.16
2023-01-03T16:47:45.980Z,5.11
2023-01-03T16:50:16.638Z,5.14
2023-01-03T16:52:46.424Z,5.15
2023-01-03T16:55:28.209Z,5.13
2023-01-03T16:57:57.108Z,5.12
2023-01-03T17:00:30.020Z,5.14
2023-01-03T17:03:03.253Z,5.18
2023-01-03T17:05:38.427Z,5.13
2023-01-03T17:08:21.785Z,5.17
2023-01-03T17:10:51.954Z,5.16
2023-01-03T17:13:24.887Z,5.21
2023-01-03T17:15:53.631Z,5.21
2023-01-03T17:18:23.403Z,5.23
2023-01-03T17:20:57.995Z,5.26
2023-01-03T17:23:27.847Z,5.19
2023-01-03T17:25:56.393Z,5.22
2023-01-03T17:28:24.422Z,5.27
2023-01-03T17:30:56.672Z,5.23
2023-01-03T17:33:32.180Z,5.24
2023-01-03T17:36:01.972Z,5.24
2023-01-03T17:38:31.196Z,5.25
2023-01-03T17:40:59.128Z,5.26
2023-01-03T17:43:28.896Z,5.27
2023-01-03T17:46:22.944Z,5.26
2023-01-03T17:49:10.960Z,5.23
2023-01-03T17:51:38.925Z,5.31
2023-01-03T17:54:09.634Z,5.32
2023-01-03T17:56:39.489Z,5.32
2023-01-03T17:59:07.351Z,5.37
2023-01-03T18:01:35.715Z,5.36
2023-01-03T18:04:04.043Z,5.38
2023-01-03T18:06:32.243Z,5.39
2023-01-03T18:09:03.012Z,5.41
2023-01-03T18:11:31.282Z,5.46
2023-01-03T18:13:59.634Z,5.46
2023-01-03T18:16:27.555Z,5.46
2023-01-03T18:18:56.683Z,5.48
2023-01-03T18:21:27.942Z,5.45
2023-01-03T18:24:05.265Z,5.48
2023-01-03T18:26:34.843Z,5.45
2023-01-03T18:29:03.375Z,5.48
2023-01-03T18:31:31.844Z,5.48
2023-01-03T18:34:04.240Z,5.47
2023-01-03T18:36:38.745Z,5.47
2023-01-03T18:39:14.555Z,5.50
2023-01-03T18:41:43.629Z,5.51
2023-01-03T18:44:19.594Z,5.48
2023-01-03T18:46:47.913Z,5.52
2023-01-03T18:49:17.485Z,5.52
2023-01-03T18:51:53.437Z,5.52
2023-01-03T18:54:21.365Z,5.49
2023-01-03T18:56:49.825Z,5.56
2023-01-03T18:59:17.727Z,5.62
2023-01-03T19:01:45.833Z,5.60
2023-01-03T19:04:14.387Z,5.62
2023-01-03T19:06:47.026Z,5.65
2023-01-03T19:09:25.969Z,5.64
2023-01-03T19:11:54.475Z,5.62
2023-01-03T19:14:22.468Z,5.62
2023-01-03T19:16:51.907Z,5.69
2023-01-03T19:19:22.829Z,5.66
2023-01-03T19:21:58.236Z,5.64
2023-01-03T19:24:39.470Z,5.71
2023-01-03T19:27:14.153Z,5.68
2023-01-03T19:29:42.305Z,5.67
2023-01-03T19:32:21.760Z,5.62
2023-01-03T19:34:50.361Z,5.64
2023-01-03T19:37:18.331Z,5.74
2023-01-03T19:39:46.287Z,5.68
2023-01-03T19:42:34.442Z,5.68
2023-01-03T19:45:11.619Z,5.68
2023-01-03T19:47:39.489Z,5.66
2023-01-03T19:50:16.713Z,5.77
2023-01-03T19:52:45.820Z,5.77
2023-01-03T19:55:13.978Z,5.84
2023-01-03T19:57:43.156Z,5.84
2023-01-03T20:00:17.146Z,5.82
2023-01-03T20:02:45.524Z,5.91
2023-01-03T20:05:22.553Z,5.94
2023-01-03T20:07:51.075Z,5.98
2023-01-03T20:10:21.505Z,5.97
2023-01-03T20:12:53.467Z,5.97
2023-01-03T20:15:26.347Z,5.93
2023-01-03T20:17:55.240Z,5.92
2023-01-03T20:20:27.997Z,5.86
2023-01-03T20:23:05.128Z,5.87
2023-01-03T20:25:37.372Z,5.90
2023-01-03T20:28:05.609Z,5.89
2023-01-03T20:30:34.305Z,5.87
2023-01-03T20:33:02.362Z,5.95
2023-01-03T20:38:25.263Z,5.89
2023-01-03T20:40:53.958Z,5.91
2023-01-03T20:43:22.438Z,5.86
2023-01-03T20:45:55.479Z,5.86
2023-01-03T20:48:26.147Z,5.86
2023-01-03T20:50:55.073Z,5.87
2023-01-03T20:53:26.968Z,5.88
2023-01-03T20:55:55.013Z,5.95
2023-01-03T20:58:28.019Z,5.92
2023-01-03T21:01:04.103Z,5.95
2023-01-03T21:03:33.803Z,5.95
2023-01-03T21:06:02.965Z,5.97
2023-01-03T21:08:49.438Z,6.13
2023-01-03T21:11:17.261Z,6.14
2023-01-03T21:13:45.202Z,6.11
2023-01-03T21:16:34.441Z,6.08
2023-01-03T21:19:04.014Z,6.08
2023-01-03T21:21:32.638Z,6.04
2023-01-03T21:24:01.431Z,5.96
2023-01-03T21:26:29.474Z,5.92
2023-01-03T21:28:58.097Z,5.97
2023-01-03T21:31:26.310Z,6.01
2023-01-03T21:33:54.879Z,5.99
2023-01-03T21:36:25.533Z,5.99
2023-01-03T21:38:53.749Z,5.94
2023-01-03T21:41:23.315Z,5.96
2023-01-03T21:43:54.034Z,5.94
2023-01-03T21:46:22.362Z,5.88
2023-01-03T21:48:50.218Z,5.95
2023-01-03T21:51:27.444Z,6.04
2023-01-03T21:54:03.219Z,6.10
2023-01-03T21:56:31.037Z,6.12
2023-01-03T21:58:58.971Z,6.09
2023-01-03T22:01:26.954Z,6.05
2023-01-03T22:04:16.225Z,6.09
2023-01-03T22:06:43.981Z,6.11
2023-01-03T22:09:31.887Z,6.03
2023-01-03T22:11:59.839Z,6.07
2023-01-03T22:14:27.655Z,6.04
2023-01-03T22:16:55.922Z,6.04
2023-01-03T22:19:24.346Z,6.06
2023-01-03T22:21:52.233Z,6.05
2023-01-03T22:24:21.259Z,6.07
2023-01-03T22:26:49.257Z,6.06
2023-01-03T22:29:17.282Z,6.08
2023-01-03T22:31:47.200Z,6.11
2023-01-03T22:34:15.011Z,6.14
2023-01-03T22:36:42.788Z,6.21
2023-01-03T22:39:11.769Z,6.21
2023-01-03T22:41:39.536Z,6.37
2023-01-03T22:44:07.404Z,6.37
2023-01-03T22:46:35.235Z,6.34
2023-01-03T22:49:03.141Z,6.46
2023-01-03T22:51:31.373Z,6.57
2023-01-03T22:53:59.407Z,6.56
2023-01-03T22:56:27.303Z,6.56
2023-01-03T22:58:55.375Z,6.55
2023-01-03T23:01:28.091Z,6.48
2023-01-03T23:04:00.005Z,6.43
2023-01-03T23:06:29.446Z,6.46
2023-01-03T23:08:57.442Z,6.45
2023-01-03T23:11:45.610Z,6.50
2023-01-03T23:14:17.430Z,6.45
2023-01-03T23:16:46.022Z,6.43
2023-01-03T23:19:15.596Z,6.43
2023-01-03T23:21:45.546Z,6.49
2023-01-03T23:24:22.441Z,6.54
2023-01-03T23:26:50.969Z,6.54
2023-01-03T23:29:19.409Z,6.58
2023-01-03T23:31:47.306Z,6.55
2023-01-03T23:34:15.192Z,6.57
2023-01-03T23:36:43.604Z,6.59
2023-01-03T23:39:12.930Z,6.56
2023-01-03T23:41:41.179Z,6.50
2023-01-03T23:44:09.461Z,6.59
2023-01-03T23:46:38.238Z,6.56
2023-01-03T23:49:06.155Z,6.48
2023-01-03T23:51:34.249Z,6.42
2023-01-03T23:54:02.243Z,6.40
2023-01-03T23:56:30.100Z,6.36
2023-01-03T23:58:58.133Z,6.34
